sensor_id;sensor_type;location;lat;lon;timestamp;P1;durP1;ratioP1;P2;durP2;ratioP2
25731;SDS011;13585;50.864;4.406;2023-02-01T00:00:25;6.63;;;3.10;;
25731;SDS011;13585;50.864;4.406;2023-02-01T00:02:50;7.07;;;2.90;;
25731;SDS011;13585;50.864;4.406;2023-02-01T00:05:16;6.72;;;2.78;;
25731;SDS011;13585;50.864;4.406;2023-02-01T00:07:42;4.68;;;2.92;;
25731;SDS011;13585;50.864;4.406;2023-02-01T00:10:07;6.88;;;3.20;;
25731;SDS011;13585;50.864;4.406;2023-02-01T00:12:33;4.57;;;2.80;;
25731;SDS011;13585;50.864;4.406;2023-02-01T00:15:00;7.28;;;2.70;;
25731;SDS011;13585;50.864;4.406;2023-02-01T00:17:25;5.75;;;3.08;;
25731;SDS011;13585;50.864;4.406;2023-02-01T00:19:51;7.63;;;3.15;;
25731;SDS011;13585;50.864;4.406;2023-02-01T00:22:17;6.45;;;3.10;;
25731;SDS011;13585;50.864;4.406;2023-02-01T00:24:42;8.23;;;3.10;;
25731;SDS011;13585;50.864;4.406;2023-02-01T00:27:09;5.45;;;2.80;;
25731;SDS011;13585;50.864;4.406;2023-02-01T00:29:34;5.78;;;3.42;;
25731;SDS011;13585;50.864;4.406;2023-02-01T00:32:00;6.00;;;3.28;;
25731;SDS011;13585;50.864;4.406;2023-02-01T00:34:25;7.75;;;3.72;;
25731;SDS011;13585;50.864;4.406;2023-02-01T00:36:51;7.47;;;3.42;;
25731;SDS011;13585;50.864;4.406;2023-02-01T00:39:19;6.32;;;3.63;;
25731;SDS011;13585;50.864;4.406;2023-02-01T00:41:47;7.00;;;3.30;;
25731;SDS011;13585;50.864;4.406;2023-02-01T00:44:13;6.20;;;3.17;;
25731;SDS011;13585;50.864;4.406;2023-02-01T00:46:38;4.65;;;2.90;;
25731;SDS011;13585;50.864;4.406;2023-02-01T00:49:04;8.52;;;3.17;;
25731;SDS011;13585;50.864;4.406;2023-02-01T00:51:32;7.00;;;3.40;;
25731;SDS011;13585;50.864;4.406;2023-02-01T00:53:57;7.40;;;3.50;;
25731;SDS011;13585;50.864;4.406;2023-02-01T00:56:23;5.63;;;3.08;;
25731;SDS011;13585;50.864;4.406;2023-02-01T00:58:49;4.95;;;2.78;;
25731;SDS011;13585;50.864;4.406;2023-02-01T01:01:15;7.28;;;3.15;;
25731;SDS011;13585;50.864;4.406;2023-02-01T01:03:44;6.88;;;3.28;;
25731;SDS011;13585;50.864;4.406;2023-02-01T01:06:12;5.53;;;3.20;;
25731;SDS011;13585;50.864;4.406;2023-02-01T01:08:40;6.13;;;3.40;;
25731;SDS011;13585;50.864;4.406;2023-02-01T01:11:13;8.20;;;3.25;;
25731;SDS011;13585;50.864;4.406;2023-02-01T01:13:41;5.25;;;2.95;;
25731;SDS011;13585;50.864;4.406;2023-02-01T01:16:08;5.10;;;2.90;;
25731;SDS011;13585;50.864;4.406;2023-02-01T01:18:35;5.07;;;2.88;;
25731;SDS011;13585;50.864;4.406;2023-02-01T01:21:01;5.68;;;3.25;;
25731;SDS011;13585;50.864;4.406;2023-02-01T01:23:29;5.95;;;2.85;;
25731;SDS011;13585;50.864;4.406;2023-02-01T01:25:55;6.80;;;3.63;;
25731;SDS011;13585;50.864;4.406;2023-02-01T01:28:20;5.70;;;2.97;;
25731;SDS011;13585;50.864;4.406;2023-02-01T01:30:46;5.55;;;2.78;;
25731;SDS011;13585;50.864;4.406;2023-02-01T01:33:12;6.70;;;3.10;;
25731;SDS011;13585;50.864;4.406;2023-02-01T01:35:37;5.30;;;2.90;;
25731;SDS011;13585;50.864;4.406;2023-02-01T01:38:03;6.38;;;2.65;;
25731;SDS011;13585;50.864;4.406;2023-02-01T01:40:29;6.00;;;3.03;;
25731;SDS011;13585;50.864;4.406;2023-02-01T01:42:56;6.22;;;3.13;;
25731;SDS011;13585;50.864;4.406;2023-02-01T01:45:25;7.60;;;3.45;;
25731;SDS011;13585;50.864;4.406;2023-02-01T01:47:58;4.68;;;2.75;;
25731;SDS011;13585;50.864;4.406;2023-02-01T01:50:30;5.10;;;2.83;;
25731;SDS011;13585;50.864;4.406;2023-02-01T01:53:00;6.05;;;3.00;;
25731;SDS011;13585;50.864;4.406;2023-02-01T01:55:29;7.22;;;2.95;;
25731;SDS011;13585;50.864;4.406;2023-02-01T01:58:02;5.72;;;3.17;;
25731;SDS011;13585;50.864;4.406;2023-02-01T02:00:32;5.78;;;2.53;;
25731;SDS011;13585;50.864;4.406;2023-02-01T02:03:00;5.63;;;2.83;;
25731;SDS011;13585;50.864;4.406;2023-02-01T02:05:36;4.88;;;2.67;;
25731;SDS011;13585;50.864;4.406;2023-02-01T02:08:02;6.22;;;3.10;;
25731;SDS011;13585;50.864;4.406;2023-02-01T02:10:28;7.75;;;3.20;;
25731;SDS011;13585;50.864;4.406;2023-02-01T02:13:20;4.18;;;2.38;;
25731;SDS011;13585;50.864;4.406;2023-02-01T02:15:50;4.15;;;2.60;;
25731;SDS011;13585;50.864;4.406;2023-02-01T02:18:27;4.88;;;2.72;;
25731;SDS011;13585;50.864;4.406;2023-02-01T02:21:24;6.43;;;3.22;;
25731;SDS011;13585;50.864;4.406;2023-02-01T02:26:50;4.70;;;2.60;;
25731;SDS011;13585;50.864;4.406;2023-02-01T02:29:26;6.07;;;3.17;;
25731;SDS011;13585;50.864;4.406;2023-02-01T02:35:05;4.20;;;2.50;;
25731;SDS011;13585;50.864;4.406;2023-02-01T02:37:48;7.03;;;2.88;;
25731;SDS011;13585;50.864;4.406;2023-02-01T02:40:32;6.80;;;3.10;;
25731;SDS011;13585;50.864;4.406;2023-02-01T02:43:12;6.20;;;2.78;;
25731;SDS011;13585;50.864;4.406;2023-02-01T02:46:16;5.13;;;2.63;;
25731;SDS011;13585;50.864;4.406;2023-02-01T02:51:52;5.20;;;2.50;;
25731;SDS011;13585;50.864;4.406;2023-02-01T02:54:58;4.90;;;2.63;;
25731;SDS011;13585;50.864;4.406;2023-02-01T02:57:30;4.53;;;2.67;;
25731;SDS011;13585;50.864;4.406;2023-02-01T03:00:18;5.15;;;2.67;;
25731;SDS011;13585;50.864;4.406;2023-02-01T03:03:04;5.00;;;2.65;;
25731;SDS011;13585;50.864;4.406;2023-02-01T03:05:50;6.30;;;2.72;;
25731;SDS011;13585;50.864;4.406;2023-02-01T03:08:17;7.18;;;3.40;;
25731;SDS011;13585;50.864;4.406;2023-02-01T03:13:20;6.22;;;2.20;;
25731;SDS011;13585;50.864;4.406;2023-02-01T03:18:26;4.65;;;2.45;;
25731;SDS011;13585;50.864;4.406;2023-02-01T03:21:02;5.20;;;2.95;;
25731;SDS011;13585;50.864;4.406;2023-02-01T03:23:33;5.63;;;2.45;;
25731;SDS011;13585;50.864;4.406;2023-02-01T03:26:02;5.35;;;2.47;;
25731;SDS011;13585;50.864;4.406;2023-02-01T03:28:29;5.45;;;2.35;;
25731;SDS011;13585;50.864;4.406;2023-02-01T03:30:58;5.30;;;2.53;;
25731;SDS011;13585;50.864;4.406;2023-02-01T03:33:25;5.65;;;2.70;;
25731;SDS011;13585;50.864;4.406;2023-02-01T03:41:30;5.78;;;2.50;;
25731;SDS011;13585;50.864;4.406;2023-02-01T03:46:45;4.25;;;2.40;;
25731;SDS011;13585;50.864;4.406;2023-02-01T03:49:22;6.47;;;2.90;;
25731;SDS011;13585;50.864;4.406;2023-02-01T03:51:54;4.10;;;2.05;;
25731;SDS011;13585;50.864;4.406;2023-02-01T03:54:21;4.60;;;2.25;;
25731;SDS011;13585;50.864;4.406;2023-02-01T03:56:47;5.72;;;2.38;;
25731;SDS011;13585;50.864;4.406;2023-02-01T03:59:14;6.22;;;2.75;;
25731;SDS011;13585;50.864;4.406;2023-02-01T04:01:40;7.13;;;2.60;;
25731;SDS011;13585;50.864;4.406;2023-02-01T04:04:06;4.90;;;2.53;;
25731;SDS011;13585;50.864;4.406;2023-02-01T04:06:32;5.07;;;2.58;;
25731;SDS011;13585;50.864;4.406;2023-02-01T04:08:57;7.15;;;2.42;;
25731;SDS011;13585;50.864;4.406;2023-02-01T04:11:23;7.53;;;2.80;;
25731;SDS011;13585;50.864;4.406;2023-02-01T04:13:48;8.00;;;2.55;;
25731;SDS011;13585;50.864;4.406;2023-02-01T04:16:14;6.75;;;2.47;;
25731;SDS011;13585;50.864;4.406;2023-02-01T04:18:40;6.55;;;2.60;;
25731;SDS011;13585;50.864;4.406;2023-02-01T04:21:05;8.70;;;2.55;;
25731;SDS011;13585;50.864;4.406;2023-02-01T04:23:31;5.50;;;2.63;;
25731;SDS011;13585;50.864;4.406;2023-02-01T04:26:00;6.85;;;2.40;;
25731;SDS011;13585;50.864;4.406;2023-02-01T04:28:27;6.05;;;2.60;;
25731;SDS011;13585;50.864;4.406;2023-02-01T04:30:53;6.78;;;2.95;;
25731;SDS011;13585;50.864;4.406;2023-02-01T04:33:19;8.65;;;2.80;;
25731;SDS011;13585;50.864;4.406;2023-02-01T04:35:45;6.47;;;2.88;;
25731;SDS011;13585;50.864;4.406;2023-02-01T04:38:10;6.00;;;2.47;;
25731;SDS011;13585;50.864;4.406;2023-02-01T04:40:36;5.85;;;2.45;;
25731;SDS011;13585;50.864;4.406;2023-02-01T04:43:03;5.78;;;2.50;;
25731;SDS011;13585;50.864;4.406;2023-02-01T04:45:29;4.90;;;2.70;;
25731;SDS011;13585;50.864;4.406;2023-02-01T04:47:55;5.85;;;2.40;;
25731;SDS011;13585;50.864;4.406;2023-02-01T04:50:20;6.07;;;2.72;;
25731;SDS011;13585;50.864;4.406;2023-02-01T04:52:46;6.68;;;2.47;;
25731;SDS011;13585;50.864;4.406;2023-02-01T04:55:12;5.10;;;2.55;;
25731;SDS011;13585;50.864;4.406;2023-02-01T04:57:38;4.95;;;2.17;;
25731;SDS011;13585;50.864;4.406;2023-02-01T05:00:05;7.25;;;2.17;;
25731;SDS011;13585;50.864;4.406;2023-02-01T05:02:33;6.18;;;2.88;;
25731;SDS011;13585;50.864;4.406;2023-02-01T05:04:59;7.53;;;2.38;;
25731;SDS011;13585;50.864;4.406;2023-02-01T05:07:26;6.35;;;2.60;;
25731;SDS011;13585;50.864;4.406;2023-02-01T05:09:51;5.68;;;2.08;;
25731;SDS011;13585;50.864;4.406;2023-02-01T05:12:17;5.00;;;2.33;;
25731;SDS011;13585;50.864;4.406;2023-02-01T05:15:01;3.75;;;2.15;;
25731;SDS011;13585;50.864;4.406;2023-02-01T05:17:27;6.13;;;2.10;;
25731;SDS011;13585;50.864;4.406;2023-02-01T05:19:52;6.25;;;2.33;;
25731;SDS011;13585;50.864;4.406;2023-02-01T05:22:18;4.60;;;2.47;;
25731;SDS011;13585;50.864;4.406;2023-02-01T05:24:44;5.53;;;2.30;;
25731;SDS011;13585;50.864;4.406;2023-02-01T05:27:09;5.32;;;2.30;;
25731;SDS011;13585;50.864;4.406;2023-02-01T05:29:35;7.97;;;2.92;;
25731;SDS011;13585;50.864;4.406;2023-02-01T05:32:01;7.30;;;2.38;;
25731;SDS011;13585;50.864;4.406;2023-02-01T05:34:26;5.32;;;2.30;;
25731;SDS011;13585;50.864;4.406;2023-02-01T05:36:52;3.97;;;2.15;;
25731;SDS011;13585;50.864;4.406;2023-02-01T05:39:18;4.32;;;2.13;;
25731;SDS011;13585;50.864;4.406;2023-02-01T05:41:44;4.20;;;2.20;;
25731;SDS011;13585;50.864;4.406;2023-02-01T05:44:10;5.65;;;2.28;;
25731;SDS011;13585;50.864;4.406;2023-02-01T05:46:36;6.25;;;2.58;;
25731;SDS011;13585;50.864;4.406;2023-02-01T05:49:01;3.60;;;1.80;;
25731;SDS011;13585;50.864;4.406;2023-02-01T05:51:27;5.10;;;2.50;;
25731;SDS011;13585;50.864;4.406;2023-02-01T05:53:53;4.32;;;1.85;;
25731;SDS011;13585;50.864;4.406;2023-02-01T05:56:18;6.30;;;2.25;;
25731;SDS011;13585;50.864;4.406;2023-02-01T05:58:44;5.90;;;2.10;;
25731;SDS011;13585;50.864;4.406;2023-02-01T06:01:10;5.30;;;2.20;;
25731;SDS011;13585;50.864;4.406;2023-02-01T06:03:35;7.10;;;2.00;;
25731;SDS011;13585;50.864;4.406;2023-02-01T06:06:01;4.95;;;2.17;;
25731;SDS011;13585;50.864;4.406;2023-02-01T06:08:27;5.38;;;2.25;;
25731;SDS011;13585;50.864;4.406;2023-02-01T06:10:59;4.60;;;2.17;;
25731;SDS011;13585;50.864;4.406;2023-02-01T06:13:27;5.72;;;2.30;;
25731;SDS011;13585;50.864;4.406;2023-02-01T06:15:53;5.32;;;2.38;;
25731;SDS011;13585;50.864;4.406;2023-02-01T06:18:19;6.97;;;2.33;;
25731;SDS011;13585;50.864;4.406;2023-02-01T06:20:44;5.57;;;2.40;;
25731;SDS011;13585;50.864;4.406;2023-02-01T06:23:10;7.22;;;1.92;;
25731;SDS011;13585;50.864;4.406;2023-02-01T06:25:36;4.32;;;1.98;;
25731;SDS011;13585;50.864;4.406;2023-02-01T06:28:02;5.15;;;2.15;;
25731;SDS011;13585;50.864;4.406;2023-02-01T06:30:30;5.95;;;2.15;;
25731;SDS011;13585;50.864;4.406;2023-02-01T06:32:56;3.65;;;1.70;;
25731;SDS011;13585;50.864;4.406;2023-02-01T06:35:22;4.25;;;2.10;;
25731;SDS011;13585;50.864;4.406;2023-02-01T06:37:47;6.82;;;2.10;;
25731;SDS011;13585;50.864;4.406;2023-02-01T06:40:13;7.30;;;2.22;;
25731;SDS011;13585;50.864;4.406;2023-02-01T06:42:39;7.03;;;2.17;;
25731;SDS011;13585;50.864;4.406;2023-02-01T06:45:04;5.15;;;1.90;;
25731;SDS011;13585;50.864;4.406;2023-02-01T06:47:32;6.03;;;2.25;;
25731;SDS011;13585;50.864;4.406;2023-02-01T06:49:57;5.88;;;2.13;;
25731;SDS011;13585;50.864;4.406;2023-02-01T06:52:23;6.93;;;2.38;;
25731;SDS011;13585;50.864;4.406;2023-02-01T06:54:48;5.07;;;1.92;;
25731;SDS011;13585;50.864;4.406;2023-02-01T06:57:14;4.63;;;2.10;;
25731;SDS011;13585;50.864;4.406;2023-02-01T06:59:40;7.20;;;2.42;;
25731;SDS011;13585;50.864;4.406;2023-02-01T07:02:05;5.13;;;1.92;;
25731;SDS011;13585;50.864;4.406;2023-02-01T07:04:33;4.97;;;1.80;;
25731;SDS011;13585;50.864;4.406;2023-02-01T07:06:59;7.10;;;2.15;;
25731;SDS011;13585;50.864;4.406;2023-02-01T07:09:24;6.63;;;2.22;;
25731;SDS011;13585;50.864;4.406;2023-02-01T07:11:50;4.82;;;2.22;;
25731;SDS011;13585;50.864;4.406;2023-02-01T07:14:15;7.22;;;2.40;;
25731;SDS011;13585;50.864;4.406;2023-02-01T07:16:41;5.50;;;2.15;;
25731;SDS011;13585;50.864;4.406;2023-02-01T07:19:07;6.82;;;2.28;;
25731;SDS011;13585;50.864;4.406;2023-02-01T07:21:32;5.63;;;2.28;;
25731;SDS011;13585;50.864;4.406;2023-02-01T07:23:58;4.85;;;1.80;;
25731;SDS011;13585;50.864;4.406;2023-02-01T07:26:24;6.55;;;2.40;;
25731;SDS011;13585;50.864;4.406;2023-02-01T07:28:49;4.40;;;2.17;;
25731;SDS011;13585;50.864;4.406;2023-02-01T07:31:16;6.18;;;2.25;;
25731;SDS011;13585;50.864;4.406;2023-02-01T07:33:47;6.78;;;2.38;;
25731;SDS011;13585;50.864;4.406;2023-02-01T07:36:16;6.13;;;1.90;;
25731;SDS011;13585;50.864;4.406;2023-02-01T07:38:43;5.90;;;2.28;;
25731;SDS011;13585;50.864;4.406;2023-02-01T07:41:08;7.72;;;2.17;;
25731;SDS011;13585;50.864;4.406;2023-02-01T07:43:35;6.10;;;2.30;;
25731;SDS011;13585;50.864;4.406;2023-02-01T07:46:01;6.28;;;2.17;;
25731;SDS011;13585;50.864;4.406;2023-02-01T07:48:28;5.93;;;2.20;;
25731;SDS011;13585;50.864;4.406;2023-02-01T07:50:58;7.97;;;2.45;;
25731;SDS011;13585;50.864;4.406;2023-02-01T07:53:29;7.63;;;1.95;;
25731;SDS011;13585;50.864;4.406;2023-02-01T07:55:57;5.70;;;1.92;;
25731;SDS011;13585;50.864;4.406;2023-02-01T07:58:23;7.18;;;2.15;;
25731;SDS011;13585;50.864;4.406;2023-02-01T08:00:49;8.30;;;2.60;;
25731;SDS011;13585;50.864;4.406;2023-02-01T08:03:34;4.45;;;2.17;;
25731;SDS011;13585;50.864;4.406;2023-02-01T08:05:59;4.35;;;1.50;;
25731;SDS011;13585;50.864;4.406;2023-02-01T08:08:25;5.40;;;1.95;;
25731;SDS011;13585;50.864;4.406;2023-02-01T08:10:51;5.40;;;2.30;;
25731;SDS011;13585;50.864;4.406;2023-02-01T08:13:16;6.53;;;2.40;;
25731;SDS011;13585;50.864;4.406;2023-02-01T08:15:42;5.43;;;2.15;;
25731;SDS011;13585;50.864;4.406;2023-02-01T08:18:07;4.28;;;2.10;;
25731;SDS011;13585;50.864;4.406;2023-02-01T08:20:35;5.72;;;1.98;;
25731;SDS011;13585;50.864;4.406;2023-02-01T08:23:01;5.65;;;1.90;;
25731;SDS011;13585;50.864;4.406;2023-02-01T08:25:27;7.45;;;2.17;;
25731;SDS011;13585;50.864;4.406;2023-02-01T08:27:53;6.88;;;2.35;;
25731;SDS011;13585;50.864;4.406;2023-02-01T08:30:19;6.40;;;2.08;;
25731;SDS011;13585;50.864;4.406;2023-02-01T08:32:45;5.82;;;2.33;;
25731;SDS011;13585;50.864;4.406;2023-02-01T08:35:11;6.05;;;2.22;;
25731;SDS011;13585;50.864;4.406;2023-02-01T08:37:36;6.68;;;2.20;;
25731;SDS011;13585;50.864;4.406;2023-02-01T08:40:03;5.57;;;2.17;;
25731;SDS011;13585;50.864;4.406;2023-02-01T08:42:29;5.22;;;2.20;;
25731;SDS011;13585;50.864;4.406;2023-02-01T08:45:23;6.03;;;2.20;;
25731;SDS011;13585;50.864;4.406;2023-02-01T08:47:50;5.20;;;1.70;;
25731;SDS011;13585;50.864;4.406;2023-02-01T08:50:19;8.32;;;2.42;;
25731;SDS011;13585;50.864;4.406;2023-02-01T08:52:45;6.50;;;2.20;;
25731;SDS011;13585;50.864;4.406;2023-02-01T08:55:12;5.32;;;2.00;;
25731;SDS011;13585;50.864;4.406;2023-02-01T08:57:38;5.90;;;2.15;;
25731;SDS011;13585;50.864;4.406;2023-02-01T09:00:05;6.75;;;2.00;;
25731;SDS011;13585;50.864;4.406;2023-02-01T09:02:33;6.95;;;2.28;;
25731;SDS011;13585;50.864;4.406;2023-02-01T09:04:59;6.30;;;2.10;;
25731;SDS011;13585;50.864;4.406;2023-02-01T09:07:24;4.60;;;1.98;;
25731;SDS011;13585;50.864;4.406;2023-02-01T09:09:50;5.03;;;1.90;;
25731;SDS011;13585;50.864;4.406;2023-02-01T09:12:16;5.10;;;1.92;;
25731;SDS011;13585;50.864;4.406;2023-02-01T09:14:41;8.00;;;2.30;;
25731;SDS011;13585;50.864;4.406;2023-02-01T09:17:07;6.13;;;1.83;;
25731;SDS011;13585;50.864;4.406;2023-02-01T09:19:32;4.30;;;2.08;;
25731;SDS011;13585;50.864;4.406;2023-02-01T09:21:58;5.78;;;2.10;;
25731;SDS011;13585;50.864;4.406;2023-02-01T09:24:24;5.00;;;1.83;;
25731;SDS011;13585;50.864;4.406;2023-02-01T09:26:50;6.18;;;2.03;;
25731;SDS011;13585;50.864;4.406;2023-02-01T09:29:16;5.97;;;2.42;;
25731;SDS011;13585;50.864;4.406;2023-02-01T09:31:42;4.40;;;1.85;;
25731;SDS011;13585;50.864;4.406;2023-02-01T09:34:07;5.82;;;2.05;;
25731;SDS011;13585;50.864;4.406;2023-02-01T09:36:34;8.48;;;1.80;;
25731;SDS011;13585;50.864;4.406;2023-02-01T09:38:59;7.88;;;2.22;;
25731;SDS011;13585;50.864;4.406;2023-02-01T09:44:36;6.53;;;2.10;;
25731;SDS011;13585;50.864;4.406;2023-02-01T09:47:24;6.03;;;2.00;;
25731;SDS011;13585;50.864;4.406;2023-02-01T09:49:59;6.95;;;2.03;;
25731;SDS011;13585;50.864;4.406;2023-02-01T09:52:36;4.80;;;1.98;;
25731;SDS011;13585;50.864;4.406;2023-02-01T09:55:30;5.88;;;2.05;;
25731;SDS011;13585;50.864;4.406;2023-02-01T09:58:14;8.02;;;2.00;;
25731;SDS011;13585;50.864;4.406;2023-02-01T10:00:44;7.20;;;2.13;;
25731;SDS011;13585;50.864;4.406;2023-02-01T10:03:18;5.68;;;1.90;;
25731;SDS011;13585;50.864;4.406;2023-02-01T10:05:50;6.18;;;2.00;;
25731;SDS011;13585;50.864;4.406;2023-02-01T10:08:31;7.78;;;1.80;;
25731;SDS011;13585;50.864;4.406;2023-02-01T10:14:37;6.28;;;2.40;;
25731;SDS011;13585;50.864;4.406;2023-02-01T10:17:16;6.80;;;2.00;;
25731;SDS011;13585;50.864;4.406;2023-02-01T10:28:02;5.20;;;2.10;;
25731;SDS011;13585;50.864;4.406;2023-02-01T10:30:37;6.25;;;1.95;;
25731;SDS011;13585;50.864;4.406;2023-02-01T10:33:12;5.32;;;2.03;;
25731;SDS011;13585;50.864;4.406;2023-02-01T10:35:43;5.82;;;2.05;;
25731;SDS011;13585;50.864;4.406;2023-02-01T10:38:23;4.63;;;1.80;;
25731;SDS011;13585;50.864;4.406;2023-02-01T10:40:53;7.80;;;2.53;;
25731;SDS011;13585;50.864;4.406;2023-02-01T10:43:23;5.00;;;1.67;;
25731;SDS011;13585;50.864;4.406;2023-02-01T10:45:49;7.45;;;2.10;;
25731;SDS011;13585;50.864;4.406;2023-02-01T10:48:14;7.03;;;2.15;;
25731;SDS011;13585;50.864;4.406;2023-02-01T10:56:05;5.28;;;2.00;;
25731;SDS011;13585;50.864;4.406;2023-02-01T10:58:32;6.13;;;2.10;;
25731;SDS011;13585;50.864;4.406;2023-02-01T11:01:00;6.78;;;2.05;;
25731;SDS011;13585;50.864;4.406;2023-02-01T11:06:02;7.00;;;2.20;;
25731;SDS011;13585;50.864;4.406;2023-02-01T11:08:41;4.53;;;1.65;;
25731;SDS011;13585;50.864;4.406;2023-02-01T11:11:12;6.97;;;1.98;;
25731;SDS011;13585;50.864;4.406;2023-02-01T11:13:39;7.65;;;1.98;;
25731;SDS011;13585;50.864;4.406;2023-02-01T11:16:06;5.57;;;1.75;;
25731;SDS011;13585;50.864;4.406;2023-02-01T11:18:38;7.35;;;2.28;;
25731;SDS011;13585;50.864;4.406;2023-02-01T11:21:04;5.90;;;2.15;;
25731;SDS011;13585;50.864;4.406;2023-02-01T11:23:32;5.93;;;1.70;;
25731;SDS011;13585;50.864;4.406;2023-02-01T11:26:00;6.78;;;1.90;;
25731;SDS011;13585;50.864;4.406;2023-02-01T11:28:32;5.22;;;2.20;;
25731;SDS011;13585;50.864;4.406;2023-02-01T11:31:02;6.63;;;1.80;;
25731;SDS011;13585;50.864;4.406;2023-02-01T11:33:31;7.55;;;1.92;;
25731;SDS011;13585;50.864;4.406;2023-02-01T11:36:00;4.07;;;1.48;;
25731;SDS011;13585;50.864;4.406;2023-02-01T11:38:32;7.95;;;2.20;;
25731;SDS011;13585;50.864;4.406;2023-02-01T11:41:11;5.82;;;2.10;;
25731;SDS011;13585;50.864;4.406;2023-02-01T11:43:49;5.25;;;1.90;;
25731;SDS011;13585;50.864;4.406;2023-02-01T11:46:18;5.88;;;2.10;;
25731;SDS011;13585;50.864;4.406;2023-02-01T11:48:50;4.93;;;1.90;;
25731;SDS011;13585;50.864;4.406;2023-02-01T11:51:21;7.50;;;2.22;;
25731;SDS011;13585;50.864;4.406;2023-02-01T11:54:11;5.43;;;1.90;;
25731;SDS011;13585;50.864;4.406;2023-02-01T12:05:35;5.80;;;1.67;;
25731;SDS011;13585;50.864;4.406;2023-02-01T12:08:22;6.53;;;1.85;;
25731;SDS011;13585;50.864;4.406;2023-02-01T12:14:01;5.07;;;1.98;;
25731;SDS011;13585;50.864;4.406;2023-02-01T12:22:08;6.35;;;1.92;;
25731;SDS011;13585;50.864;4.406;2023-02-01T12:25:17;5.75;;;1.73;;
25731;SDS011;13585;50.864;4.406;2023-02-01T12:28:26;6.05;;;2.17;;
25731;SDS011;13585;50.864;4.406;2023-02-01T12:31:11;5.93;;;2.00;;
25731;SDS011;13585;50.864;4.406;2023-02-01T12:36:59;5.53;;;1.90;;
25731;SDS011;13585;50.864;4.406;2023-02-01T12:39:58;6.40;;;1.80;;
25731;SDS011;13585;50.864;4.406;2023-02-01T12:42:48;5.35;;;1.95;;
25731;SDS011;13585;50.864;4.406;2023-02-01T12:48:10;3.85;;;1.73;;
25731;SDS011;13585;50.864;4.406;2023-02-01T12:51:07;5.18;;;1.80;;
25731;SDS011;13585;50.864;4.406;2023-02-01T12:56:21;4.15;;;1.70;;
25731;SDS011;13585;50.864;4.406;2023-02-01T12:58:48;4.93;;;2.03;;
25731;SDS011;13585;50.864;4.406;2023-02-01T13:01:26;5.55;;;1.67;;
25731;SDS011;13585;50.864;4.406;2023-02-01T13:06:46;4.28;;;1.50;;
25731;SDS011;13585;50.864;4.406;2023-02-01T13:09:25;3.20;;;1.50;;
25731;SDS011;13585;50.864;4.406;2023-02-01T13:11:57;5.65;;;1.83;;
25731;SDS011;13585;50.864;4.406;2023-02-01T13:14:48;8.50;;;2.20;;
25731;SDS011;13585;50.864;4.406;2023-02-01T13:17:21;3.55;;;1.50;;
25731;SDS011;13585;50.864;4.406;2023-02-01T13:19:53;4.40;;;1.80;;
25731;SDS011;13585;50.864;4.406;2023-02-01T13:22:34;5.30;;;1.80;;
25731;SDS011;13585;50.864;4.406;2023-02-01T13:28:04;3.72;;;1.52;;
25731;SDS011;13585;50.864;4.406;2023-02-01T13:30:59;7.18;;;2.22;;
25731;SDS011;13585;50.864;4.406;2023-02-01T13:44:50;6.68;;;2.05;;
25731;SDS011;13585;50.864;4.406;2023-02-01T13:49:49;7.45;;;2.00;;
25731;SDS011;13585;50.864;4.406;2023-02-01T13:52:36;4.40;;;1.75;;
25731;SDS011;13585;50.864;4.406;2023-02-01T13:57:50;4.07;;;1.70;;
25731;SDS011;13585;50.864;4.406;2023-02-01T14:00:33;4.72;;;1.88;;
25731;SDS011;13585;50.864;4.406;2023-02-01T14:13:38;3.10;;;1.58;;
25731;SDS011;13585;50.864;4.406;2023-02-01T14:23:59;4.53;;;2.08;;
25731;SDS011;13585;50.864;4.406;2023-02-01T14:26:43;4.63;;;1.85;;
25731;SDS011;13585;50.864;4.406;2023-02-01T14:34:48;5.28;;;1.92;;
25731;SDS011;13585;50.864;4.406;2023-02-01T14:47:48;4.50;;;1.90;;
25731;SDS011;13585;50.864;4.406;2023-02-01T15:00:57;5.28;;;2.08;;
25731;SDS011;13585;50.864;4.406;2023-02-01T15:06:19;6.30;;;2.08;;
25731;SDS011;13585;50.864;4.406;2023-02-01T15:08:58;5.57;;;1.92;;
25731;SDS011;13585;50.864;4.406;2023-02-01T15:11:27;4.30;;;1.60;;
25731;SDS011;13585;50.864;4.406;2023-02-01T15:13:54;4.25;;;1.85;;
25731;SDS011;13585;50.864;4.406;2023-02-01T15:16:22;5.40;;;2.38;;
25731;SDS011;13585;50.864;4.406;2023-02-01T15:18:49;6.07;;;2.10;;
25731;SDS011;13585;50.864;4.406;2023-02-01T15:21:31;6.80;;;2.40;;
25731;SDS011;13585;50.864;4.406;2023-02-01T15:24:10;8.68;;;1.88;;
25731;SDS011;13585;50.864;4.406;2023-02-01T15:26:37;4.05;;;1.75;;
25731;SDS011;13585;50.864;4.406;2023-02-01T15:29:03;4.45;;;2.13;;
25731;SDS011;13585;50.864;4.406;2023-02-01T15:31:48;4.50;;;1.83;;
25731;SDS011;13585;50.864;4.406;2023-02-01T15:34:15;4.45;;;1.90;;
25731;SDS011;13585;50.864;4.406;2023-02-01T15:36:42;3.53;;;1.45;;
25731;SDS011;13585;50.864;4.406;2023-02-01T15:39:21;3.42;;;1.80;;
25731;SDS011;13585;50.864;4.406;2023-02-01T15:41:54;2.88;;;1.70;;
25731;SDS011;13585;50.864;4.406;2023-02-01T15:46:54;6.50;;;2.07;;
25731;SDS011;13585;50.864;4.406;2023-02-01T15:49:27;4.65;;;1.70;;
25731;SDS011;13585;50.864;4.406;2023-02-01T15:51:53;4.47;;;1.95;;
25731;SDS011;13585;50.864;4.406;2023-02-01T15:54:53;4.90;;;1.70;;
25731;SDS011;13585;50.864;4.406;2023-02-01T15:57:18;4.75;;;1.80;;
25731;SDS011;13585;50.864;4.406;2023-02-01T15:59:55;4.25;;;1.80;;
25731;SDS011;13585;50.864;4.406;2023-02-01T16:04:58;4.82;;;1.98;;
25731;SDS011;13585;50.864;4.406;2023-02-01T16:07:26;5.43;;;1.95;;
25731;SDS011;13585;50.864;4.406;2023-02-01T16:09:54;4.68;;;1.88;;
25731;SDS011;13585;50.864;4.406;2023-02-01T16:12:32;3.78;;;2.00;;
25731;SDS011;13585;50.864;4.406;2023-02-01T16:15:01;4.13;;;1.77;;
25731;SDS011;13585;50.864;4.406;2023-02-01T16:17:27;4.50;;;1.80;;
25731;SDS011;13585;50.864;4.406;2023-02-01T16:19:53;4.68;;;1.75;;
25731;SDS011;13585;50.864;4.406;2023-02-01T16:22:19;3.83;;;1.80;;
25731;SDS011;13585;50.864;4.406;2023-02-01T16:24:44;6.28;;;1.98;;
25731;SDS011;13585;50.864;4.406;2023-02-01T16:27:10;3.22;;;1.75;;
25731;SDS011;13585;50.864;4.406;2023-02-01T16:29:36;4.03;;;1.80;;
25731;SDS011;13585;50.864;4.406;2023-02-01T16:32:01;3.72;;;1.67;;
25731;SDS011;13585;50.864;4.406;2023-02-01T16:34:28;6.25;;;1.98;;
25731;SDS011;13585;50.864;4.406;2023-02-01T16:36:53;4.28;;;1.80;;
25731;SDS011;13585;50.864;4.406;2023-02-01T16:39:22;4.25;;;2.03;;
25731;SDS011;13585;50.864;4.406;2023-02-01T16:41:48;4.80;;;1.92;;
25731;SDS011;13585;50.864;4.406;2023-02-01T16:44:15;4.57;;;1.65;;
25731;SDS011;13585;50.864;4.406;2023-02-01T16:46:42;3.47;;;1.42;;
25731;SDS011;13585;50.864;4.406;2023-02-01T16:49:20;6.13;;;2.13;;
25731;SDS011;13585;50.864;4.406;2023-02-01T16:51:51;4.88;;;2.20;;
25731;SDS011;13585;50.864;4.406;2023-02-01T16:54:20;2.85;;;1.42;;
25731;SDS011;13585;50.864;4.406;2023-02-01T16:56:46;4.70;;;1.80;;
25731;SDS011;13585;50.864;4.406;2023-02-01T16:59:11;3.72;;;1.65;;
25731;SDS011;13585;50.864;4.406;2023-02-01T17:01:38;5.88;;;2.10;;
25731;SDS011;13585;50.864;4.406;2023-02-01T17:04:05;3.78;;;1.55;;
25731;SDS011;13585;50.864;4.406;2023-02-01T17:06:31;5.68;;;1.95;;
25731;SDS011;13585;50.864;4.406;2023-02-01T17:09:01;7.28;;;1.83;;
25731;SDS011;13585;50.864;4.406;2023-02-01T17:11:28;4.45;;;1.48;;
25731;SDS011;13585;50.864;4.406;2023-02-01T17:13:57;3.72;;;1.70;;
25731;SDS011;13585;50.864;4.406;2023-02-01T17:16:34;3.35;;;1.52;;
25731;SDS011;13585;50.864;4.406;2023-02-01T17:19:06;8.00;;;1.88;;
25731;SDS011;13585;50.864;4.406;2023-02-01T17:21:44;3.38;;;1.90;;
25731;SDS011;13585;50.864;4.406;2023-02-01T17:24:14;4.40;;;1.35;;
25731;SDS011;13585;50.864;4.406;2023-02-01T17:26:42;4.63;;;1.70;;
25731;SDS011;13585;50.864;4.406;2023-02-01T17:29:08;6.03;;;2.00;;
25731;SDS011;13585;50.864;4.406;2023-02-01T17:31:36;5.00;;;2.00;;